createdAt,value
2023-05-23T00:01:01.472Z,11.67
2023-05-23T00:03:31.557Z,11.62
2023-05-23T00:06:00.735Z,11.65
2023-05-23T00:08:29.886Z,11.57
2023-05-23T00:10:58.885Z,11.57
2023-05-23T00:13:29.446Z,11.51
2023-05-23T00:15:58.434Z,11.50
2023-05-23T00:18:27.606Z,11.45
2023-05-23T00:20:57.473Z,11.42
2023-05-23T00:23:29.773Z,11.36
2023-05-23T00:25:58.802Z,11.35
2023-05-23T00:28:29.284Z,11.37
2023-05-23T00:30:58.278Z,11.41
2023-05-23T00:33:27.519Z,11.29
2023-05-23T00:35:56.516Z,11.25
2023-05-23T00:38:26.833Z,11.19
2023-05-23T00:40:56.774Z,11.19
2023-05-23T00:43:26.234Z,11.17
2023-05-23T00:45:56.723Z,11.22
2023-05-23T00:48:26.699Z,11.10
2023-05-23T00:50:55.831Z,11.01
2023-05-23T00:53:25.367Z,11.01
2023-05-23T00:55:54.232Z,11.02
2023-05-23T00:58:24.194Z,11.01
2023-05-23T01:00:54.568Z,10.97
2023-05-23T01:03:28.857Z,10.94
2023-05-23T01:05:58.064Z,10.92
2023-05-23T01:08:27.191Z,10.85
2023-05-23T01:10:57.588Z,10.82
2023-05-23T01:13:32.157Z,10.74
2023-05-23T01:16:06.093Z,10.75
2023-05-23T01:18:41.469Z,10.78
2023-05-23T01:21:13.129Z,10.75
2023-05-23T01:23:57.234Z,10.71
2023-05-23T01:26:35.084Z,10.63
2023-05-23T01:29:14.895Z,10.54
2023-05-23T01:31:45.231Z,10.55
2023-05-23T01:34:15.022Z,10.53
2023-05-23T01:36:44.892Z,10.61
2023-05-23T01:39:14.088Z,10.55
2023-05-23T01:41:43.080Z,10.49
2023-05-23T01:44:14.062Z,10.44
2023-05-23T01:46:44.470Z,10.38
2023-05-23T01:49:14.815Z,10.52
2023-05-23T01:51:44.121Z,10.46
2023-05-23T01:54:16.957Z,10.52
2023-05-23T01:56:46.201Z,10.45
2023-05-23T01:59:16.789Z,10.37
2023-05-23T02:01:46.092Z,10.29
2023-05-23T02:04:15.853Z,10.30
2023-05-23T02:06:44.687Z,10.37
2023-05-23T02:09:15.775Z,10.23
2023-05-23T02:11:46.895Z,10.20
2023-05-23T02:14:18.616Z,10.23
2023-05-23T02:16:47.578Z,10.32
2023-05-23T02:19:16.914Z,10.35
2023-05-23T02:21:48.484Z,10.27
2023-05-23T02:24:17.856Z,10.15
2023-05-23T02:26:47.423Z,10.09
2023-05-23T02:29:18.007Z,10.06
2023-05-23T02:31:47.847Z,10.01
2023-05-23T02:34:17.286Z,10.04
2023-05-23T02:36:46.260Z,10.04
2023-05-23T02:39:15.759Z,9.97
2023-05-23T02:41:46.711Z,9.98
2023-05-23T02:44:16.115Z,10.18
2023-05-23T02:46:46.475Z,10.08
2023-05-23T02:49:15.785Z,10.07
2023-05-23T02:51:44.596Z,10.21
2023-05-23T02:54:13.830Z,10.18
2023-05-23T02:56:42.669Z,10.02
2023-05-23T02:59:12.387Z,9.99
2023-05-23T03:01:41.380Z,10.13
2023-05-23T03:04:13.757Z,10.26
2023-05-23T03:06:44.506Z,10.31
2023-05-23T03:09:13.823Z,10.31
2023-05-23T03:11:42.678Z,10.32
2023-05-23T03:14:12.056Z,10.27
2023-05-23T03:16:41.854Z,10.15
2023-05-23T03:19:14.728Z,10.16
2023-05-23T03:21:44.364Z,10.23
2023-05-23T03:24:13.732Z,10.35
2023-05-23T03:26:42.589Z,10.36
2023-05-23T03:29:12.099Z,10.43
2023-05-23T03:31:41.004Z,10.50
2023-05-23T03:34:10.262Z,10.53
2023-05-23T03:36:40.553Z,10.59
2023-05-23T03:39:09.713Z,10.66
2023-05-23T03:41:38.654Z,10.72
2023-05-23T03:44:08.095Z,10.74
2023-05-23T03:46:37.557Z,10.80
2023-05-23T03:49:07.305Z,10.88
2023-05-23T03:51:36.225Z,10.97
2023-05-23T03:54:07.226Z,11.08
2023-05-23T03:56:36.233Z,11.17
2023-05-23T03:59:06.396Z,11.27
2023-05-23T04:01:35.311Z,11.42
2023-05-23T04:04:05.043Z,11.55
2023-05-23T04:06:37.387Z,11.65
2023-05-23T04:09:08.278Z,11.74
2023-05-23T04:11:42.576Z,11.85
2023-05-23T04:14:12.581Z,11.98
2023-05-23T04:16:42.539Z,12.12
2023-05-23T04:19:12.516Z,12.22
2023-05-23T04:21:41.467Z,12.28
2023-05-23T04:24:14.065Z,12.37
2023-05-23T04:26:43.433Z,12.45
2023-05-23T04:29:13.244Z,12.51
2023-05-23T04:31:42.214Z,12.58
2023-05-23T04:34:12.154Z,12.67
2023-05-23T04:36:44.803Z,12.74
2023-05-23T04:39:16.069Z,12.80
2023-05-23T04:41:58.282Z,12.90
2023-05-23T04:44:51.280Z,12.99
2023-05-23T04:47:28.933Z,13.09
2023-05-23T04:50:06.620Z,13.19
2023-05-23T04:52:36.265Z,13.30
2023-05-23T04:55:08.773Z,13.43
2023-05-23T04:57:38.450Z,13.55
2023-05-23T05:00:10.541Z,13.68
2023-05-23T05:02:40.415Z,13.77
2023-05-23T05:05:10.118Z,13.90
2023-05-23T05:07:39.361Z,14.03
2023-05-23T05:10:16.983Z,14.20
2023-05-23T05:12:49.560Z,14.35
2023-05-23T05:15:19.574Z,14.48
2023-05-23T05:17:52.781Z,14.62
2023-05-23T05:20:23.832Z,14.77
2023-05-23T05:22:56.760Z,14.90
2023-05-23T05:25:31.926Z,15.04
2023-05-23T05:28:03.203Z,15.17
2023-05-23T05:30:35.309Z,15.30
2023-05-23T05:33:04.801Z,15.41
2023-05-23T05:35:34.996Z,15.58
2023-05-23T05:38:05.168Z,15.72
2023-05-23T05:40:36.023Z,15.85
2023-05-23T05:43:05.010Z,16.00
2023-05-23T05:45:34.947Z,16.14
2023-05-23T05:48:04.132Z,16.29
2023-05-23T05:50:33.526Z,16.45
2023-05-23T05:53:03.485Z,16.61
2023-05-23T05:55:32.679Z,16.77
2023-05-23T05:58:03.673Z,16.94
2023-05-23T06:00:43.504Z,17.12
2023-05-23T06:03:13.062Z,17.35
2023-05-23T06:05:49.844Z,17.51
2023-05-23T06:08:18.824Z,17.69
2023-05-23T06:10:48.039Z,17.89
2023-05-23T06:13:21.479Z,18.05
2023-05-23T06:15:55.118Z,18.24
2023-05-23T06:18:24.980Z,18.40
2023-05-23T06:20:54.509Z,18.58
2023-05-23T06:23:24.225Z,18.75
2023-05-23T06:25:54.354Z,18.91
2023-05-23T06:28:24.921Z,19.07
2023-05-23T06:30:54.405Z,19.24
2023-05-23T06:33:23.284Z,19.39
2023-05-23T06:35:52.426Z,19.57
2023-05-23T06:38:21.287Z,19.71
2023-05-23T06:40:50.490Z,19.89
2023-05-23T06:43:24.582Z,20.04
2023-05-23T06:45:58.586Z,20.22
2023-05-23T06:48:31.465Z,20.36
2023-05-23T06:51:02.815Z,20.51
2023-05-23T06:53:31.838Z,20.63
2023-05-23T06:56:00.994Z,20.77
2023-05-23T06:58:30.047Z,20.88
2023-05-23T07:01:02.574Z,21.02
2023-05-23T07:03:35.235Z,21.18
2023-05-23T07:06:08.100Z,21.32
2023-05-23T07:08:37.440Z,21.43
2023-05-23T07:11:07.208Z,21.53
2023-05-23T07:13:40.761Z,21.66
2023-05-23T07:16:14.021Z,21.78
2023-05-23T07:18:54.392Z,21.90
2023-05-23T07:21:25.389Z,21.94
2023-05-23T07:23:54.599Z,22.01
2023-05-23T07:26:24.806Z,22.05
2023-05-23T07:28:57.525Z,22.14
2023-05-23T07:31:28.222Z,22.24
2023-05-23T07:34:00.191Z,22.27
2023-05-23T07:36:47.646Z,22.39
2023-05-23T07:39:22.103Z,22.48
2023-05-23T07:41:52.654Z,22.56
2023-05-23T07:44:24.851Z,22.68
2023-05-23T07:46:57.074Z,22.79
2023-05-23T07:49:27.001Z,22.87
2023-05-23T07:51:57.272Z,22.93
2023-05-23T07:54:26.995Z,23.03
2023-05-23T07:57:00.533Z,23.16
2023-05-23T07:59:30.218Z,23.27
2023-05-23T08:02:01.983Z,23.38
2023-05-23T08:04:32.521Z,23.37
2023-05-23T08:07:05.404Z,23.47
2023-05-23T08:09:47.542Z,23.55
2023-05-23T08:12:20.320Z,23.64
2023-05-23T08:14:52.922Z,23.73
2023-05-23T08:17:28.216Z,23.83
2023-05-23T08:19:57.482Z,23.89
2023-05-23T08:22:26.550Z,23.97
2023-05-23T08:24:56.667Z,24.08
2023-05-23T08:27:27.120Z,24.14
2023-05-23T08:29:59.865Z,24.16
2023-05-23T08:32:30.604Z,24.23
2023-05-23T08:34:59.739Z,24.27
2023-05-23T08:37:28.905Z,24.29
2023-05-23T08:39:58.474Z,24.35
2023-05-23T08:42:41.157Z,24.39
2023-05-23T08:45:11.903Z,24.42
2023-05-23T08:47:43.729Z,24.46
2023-05-23T08:50:13.802Z,24.49
2023-05-23T08:52:44.694Z,24.55
2023-05-23T08:55:14.459Z,24.60
2023-05-23T08:57:45.744Z,24.63
2023-05-23T09:00:42.372Z,24.70
2023-05-23T09:03:14.290Z,24.66
2023-05-23T09:05:56.455Z,24.70
2023-05-23T09:08:26.218Z,24.78
2023-05-23T09:10:59.287Z,24.71
2023-05-23T09:13:29.591Z,24.73
2023-05-23T09:16:04.354Z,24.69
2023-05-23T09:18:41.130Z,24.67
2023-05-23T09:21:10.862Z,24.77
2023-05-23T09:23:45.864Z,24.77
2023-05-23T09:26:15.146Z,24.81
2023-05-23T09:28:47.151Z,24.84
2023-05-23T09:31:16.698Z,24.86
2023-05-23T09:33:49.288Z,24.85
2023-05-23T09:36:20.280Z,24.80
2023-05-23T09:38:49.978Z,24.84
2023-05-23T09:41:21.493Z,24.97
2023-05-23T09:43:54.299Z,25.01
2023-05-23T09:46:23.785Z,25.03
2023-05-23T09:48:55.920Z,25.01
2023-05-23T09:51:25.149Z,25.07
2023-05-23T09:54:13.722Z,25.10
2023-05-23T09:56:43.747Z,25.19
2023-05-23T09:59:14.959Z,25.28
2023-05-23T10:01:46.170Z,25.33
2023-05-23T10:04:18.435Z,25.40
2023-05-23T10:06:52.096Z,25.41
2023-05-23T10:09:23.480Z,25.50
2023-05-23T10:12:10.913Z,25.60
2023-05-23T10:14:42.255Z,25.69
2023-05-23T10:17:16.674Z,25.78
2023-05-23T10:19:54.622Z,25.80
2023-05-23T10:22:23.865Z,25.83
2023-05-23T10:24:53.865Z,25.83
2023-05-23T10:27:22.911Z,25.93
2023-05-23T10:29:52.725Z,25.97
2023-05-23T10:32:22.033Z,26.01
2023-05-23T10:34:58.887Z,26.07
2023-05-23T10:37:30.958Z,26.07
2023-05-23T10:40:02.358Z,26.05
2023-05-23T10:42:39.604Z,26.13
2023-05-23T10:45:16.100Z,26.16
2023-05-23T10:47:45.301Z,26.15
2023-05-23T10:50:16.388Z,26.16
2023-05-23T10:52:45.362Z,26.16
2023-05-23T10:55:15.358Z,26.17
2023-05-23T10:57:44.552Z,26.18
2023-05-23T11:00:14.804Z,26.16
2023-05-23T11:02:55.780Z,26.16
2023-05-23T11:05:32.033Z,26.14
2023-05-23T11:08:11.292Z,26.17
2023-05-23T11:10:56.830Z,26.17
2023-05-23T11:13:25.793Z,26.20
2023-05-23T11:15:54.963Z,26.25
2023-05-23T11:18:25.666Z,26.27
2023-05-23T11:20:56.649Z,26.34
2023-05-23T11:23:25.699Z,26.37
2023-05-23T11:25:55.558Z,26.47
2023-05-23T11:28:25.057Z,26.51
2023-05-23T11:30:54.306Z,26.57
2023-05-23T11:33:23.240Z,26.63
2023-05-23T11:35:53.073Z,26.68
2023-05-23T11:38:23.563Z,26.69
2023-05-23T11:40:52.806Z,26.69
2023-05-23T11:43:21.661Z,26.69
2023-05-23T11:45:51.438Z,26.73
2023-05-23T11:48:20.568Z,26.71
2023-05-23T11:50:50.741Z,26.69
2023-05-23T11:53:21.780Z,26.64
2023-05-23T11:55:54.416Z,26.62
2023-05-23T11:58:23.913Z,26.67
2023-05-23T12:00:55.076Z,26.68
2023-05-23T12:03:24.599Z,26.69
2023-05-23T12:05:53.915Z,26.74
2023-05-23T12:08:23.145Z,26.79
2023-05-23T12:10:58.556Z,26.82
2023-05-23T12:13:27.922Z,26.79
2023-05-23T12:15:58.656Z,26.79
2023-05-23T12:18:29.408Z,26.81
2023-05-23T12:21:00.835Z,26.75
2023-05-23T12:23:31.846Z,26.80
2023-05-23T12:26:05.659Z,26.75
2023-05-23T12:28:38.376Z,26.76
2023-05-23T12:31:12.348Z,26.81
2023-05-23T12:33:43.918Z,26.91
2023-05-23T12:36:13.609Z,26.96
2023-05-23T12:38:45.635Z,26.99
2023-05-23T12:41:19.937Z,27.06
2023-05-23T12:43:52.783Z,27.07
2023-05-23T12:46:23.024Z,27.06
2023-05-23T12:48:52.104Z,27.14
2023-05-23T12:51:21.526Z,27.21
2023-05-23T12:53:50.507Z,27.29
2023-05-23T12:56:22.434Z,27.37
2023-05-23T12:58:51.595Z,27.44
2023-05-23T13:01:21.591Z,27.55
2023-05-23T13:03:50.877Z,27.68
2023-05-23T13:06:19.993Z,27.67
2023-05-23T13:08:50.831Z,27.76
2023-05-23T13:11:22.580Z,27.82
2023-05-23T13:13:52.768Z,27.87
2023-05-23T13:16:22.190Z,27.97
2023-05-23T13:18:51.136Z,28.08
2023-05-23T13:21:20.596Z,28.13
2023-05-23T13:23:49.415Z,28.26
2023-05-23T13:26:18.658Z,28.39
2023-05-23T13:28:49.082Z,28.49
2023-05-23T13:31:18.399Z,28.64
2023-05-23T13:33:47.323Z,28.81
2023-05-23T13:36:16.635Z,28.92
2023-05-23T13:38:45.526Z,29.12
2023-05-23T13:41:15.068Z,29.27
2023-05-23T13:43:43.911Z,29.45
2023-05-23T13:46:14.877Z,29.67
2023-05-23T13:48:43.938Z,29.92
2023-05-23T13:51:13.227Z,30.20
2023-05-23T13:53:42.376Z,30.57
2023-05-23T13:56:11.748Z,30.83
2023-05-23T13:58:42.926Z,30.99
2023-05-23T14:01:12.286Z,31.18
2023-05-23T14:03:42.538Z,31.22
2023-05-23T14:06:11.824Z,31.19
2023-05-23T14:08:40.705Z,31.16
2023-05-23T14:11:09.888Z,31.20
2023-05-23T14:13:38.799Z,31.29
2023-05-23T14:16:08.208Z,31.29
2023-05-23T14:18:37.183Z,31.26
2023-05-23T14:21:07.856Z,31.28
2023-05-23T14:23:36.731Z,31.41
2023-05-23T14:26:06.635Z,31.53
2023-05-23T14:28:35.569Z,31.79
2023-05-23T14:31:04.985Z,32.02
2023-05-23T14:33:34.759Z,32.11
2023-05-23T14:36:04.815Z,32.25
2023-05-23T14:38:35.197Z,32.40
2023-05-23T14:41:04.537Z,32.54
2023-05-23T14:43:33.438Z,32.74
2023-05-23T14:46:02.807Z,32.99
2023-05-23T14:48:32.424Z,32.97
2023-05-23T14:51:02.866Z,33.01
2023-05-23T14:53:31.891Z,33.18
2023-05-23T14:56:02.720Z,33.32
2023-05-23T14:58:32.901Z,33.39
2023-05-23T15:01:02.489Z,33.35
2023-05-23T15:03:31.881Z,33.26
2023-05-23T15:06:01.088Z,33.15
2023-05-23T15:08:30.534Z,32.98
2023-05-23T15:10:59.669Z,32.82
2023-05-23T15:13:29.993Z,32.67
2023-05-23T15:15:59.290Z,32.53
2023-05-23T15:18:38.839Z,32.41
2023-05-23T15:21:10.746Z,32.31
2023-05-23T15:23:39.711Z,32.17
2023-05-23T15:26:09.027Z,31.84
2023-05-23T15:28:39.390Z,31.79
2023-05-23T15:31:08.683Z,31.71
2023-05-23T15:33:37.676Z,31.67
2023-05-23T15:36:07.416Z,31.58
2023-05-23T15:38:36.432Z,31.43
2023-05-23T15:41:06.395Z,31.39
2023-05-23T15:43:36.137Z,31.34
2023-05-23T15:46:07.109Z,31.38
2023-05-23T15:48:36.363Z,31.44
2023-05-23T15:51:05.675Z,31.55
2023-05-23T15:53:40.114Z,31.75
2023-05-23T15:56:17.380Z,32.02
2023-05-23T15:58:46.435Z,32.30
2023-05-23T16:01:16.982Z,32.69
2023-05-23T16:03:45.937Z,33.03
2023-05-23T16:06:15.234Z,33.28
2023-05-23T16:08:44.093Z,33.57
2023-05-23T16:11:13.768Z,33.79
2023-05-23T16:13:42.690Z,33.83
2023-05-23T16:16:11.946Z,33.88
2023-05-23T16:18:42.239Z,33.81
2023-05-23T16:21:11.617Z,33.79
2023-05-23T16:23:40.704Z,33.79
2023-05-23T16:26:09.798Z,33.89
2023-05-23T16:28:38.818Z,33.70
2023-05-23T16:31:08.111Z,33.79
2023-05-23T16:33:37.258Z,34.14
2023-05-23T16:36:08.216Z,34.32
2023-05-23T16:38:37.328Z,34.36
2023-05-23T16:41:06.742Z,34.33
2023-05-23T16:43:35.930Z,34.25
2023-05-23T16:46:05.244Z,34.25
2023-05-23T16:48:34.311Z,34.14
2023-05-23T16:51:03.420Z,33.69
2023-05-23T16:53:33.772Z,33.59
2023-05-23T16:56:04.384Z,33.32
2023-05-23T16:58:36.076Z,33.15
2023-05-23T17:01:05.643Z,33.02
2023-05-23T17:03:34.572Z,32.64
2023-05-23T17:06:04.003Z,32.14
2023-05-23T17:08:34.295Z,31.67
2023-05-23T17:11:03.949Z,31.23
2023-05-23T17:13:33.111Z,31.18
2023-05-23T17:16:04.966Z,30.99
2023-05-23T17:18:34.001Z,30.98
2023-05-23T17:21:03.365Z,30.69
2023-05-23T17:23:32.523Z,30.52
2023-05-23T17:26:06.500Z,30.28
2023-05-23T17:28:39.609Z,29.89
2023-05-23T17:31:08.937Z,29.46
2023-05-23T17:33:37.842Z,29.37
2023-05-23T17:36:07.206Z,29.20
2023-05-23T17:38:36.109Z,28.83
2023-05-23T17:41:07.014Z,28.57
2023-05-23T17:43:35.968Z,28.37
2023-05-23T17:46:05.430Z,28.21
2023-05-23T17:48:46.498Z,28.07
2023-05-23T17:51:16.928Z,27.78
2023-05-23T17:53:45.758Z,27.65
2023-05-23T17:56:16.692Z,27.54
2023-05-23T17:58:46.037Z,27.39
2023-05-23T18:01:15.592Z,27.21
2023-05-23T18:03:44.641Z,26.99
2023-05-23T18:06:13.860Z,26.81
2023-05-23T18:08:42.934Z,26.58
2023-05-23T18:11:13.294Z,26.47
2023-05-23T18:13:46.599Z,26.28
2023-05-23T18:16:16.106Z,26.09
2023-05-23T18:18:45.252Z,25.93
2023-05-23T18:21:16.257Z,25.75
2023-05-23T18:23:47.178Z,25.63
2023-05-23T18:26:16.873Z,25.55
2023-05-23T18:28:47.893Z,25.44
2023-05-23T18:31:17.763Z,25.27
2023-05-23T18:33:47.000Z,25.18
2023-05-23T18:36:16.522Z,25.01
2023-05-23T18:38:46.122Z,24.89
2023-05-23T18:41:15.548Z,24.69
2023-05-23T18:43:44.639Z,24.58
2023-05-23T18:46:15.326Z,24.48
2023-05-23T18:48:44.397Z,24.36
2023-05-23T18:51:13.812Z,24.20
2023-05-23T18:53:43.249Z,24.07
2023-05-23T18:56:12.722Z,23.97
2023-05-23T18:58:41.977Z,23.88
2023-05-23T19:01:11.397Z,23.77
2023-05-23T19:03:41.775Z,23.69
2023-05-23T19:06:11.186Z,23.56
2023-05-23T19:08:42.255Z,23.47
2023-05-23T19:11:12.197Z,23.39
2023-05-23T19:13:41.836Z,23.34
2023-05-23T19:16:12.014Z,23.27
2023-05-23T19:18:42.388Z,23.18
2023-05-23T19:21:12.894Z,23.08
2023-05-23T19:23:42.036Z,23.00
2023-05-23T19:26:13.371Z,22.95
2023-05-23T19:28:42.365Z,22.85
2023-05-23T19:31:12.377Z,22.82
2023-05-23T19:33:42.843Z,22.80
2023-05-23T19:36:12.208Z,22.62
2023-05-23T19:38:41.218Z,22.47
2023-05-23T19:41:11.123Z,22.33
2023-05-23T19:43:40.167Z,22.26
2023-05-23T19:46:10.183Z,22.14
2023-05-23T19:48:39.379Z,22.08
2023-05-23T19:51:10.030Z,22.09
2023-05-23T19:53:39.256Z,22.09
2023-05-23T19:56:09.799Z,22.01
2023-05-23T19:58:38.772Z,21.91
2023-05-23T20:01:08.176Z,21.78
2023-05-23T20:03:37.903Z,21.69
2023-05-23T20:06:07.325Z,21.60
2023-05-23T20:08:37.819Z,21.55
2023-05-23T20:11:07.087Z,21.42
2023-05-23T20:13:37.717Z,21.36
2023-05-23T20:16:07.980Z,21.37
2023-05-23T20:18:37.335Z,21.26
2023-05-23T20:21:06.658Z,21.14
2023-05-23T20:23:37.092Z,21.09
2023-05-23T20:26:08.181Z,21.06
2023-05-23T20:28:38.590Z,21.06
2023-05-23T20:31:08.073Z,21.02
2023-05-23T20:33:37.151Z,20.93
2023-05-23T20:36:07.707Z,20.89
2023-05-23T20:38:41.830Z,20.82
2023-05-23T20:41:11.424Z,20.75
2023-05-23T20:43:40.276Z,20.69
2023-05-23T20:46:10.236Z,20.54
2023-05-23T20:48:39.150Z,20.47
2023-05-23T20:51:08.897Z,20.46
2023-05-23T20:53:37.992Z,20.42
2023-05-23T20:56:11.410Z,20.35
2023-05-23T20:58:40.925Z,20.29
2023-05-23T21:01:10.180Z,20.21
2023-05-23T21:03:39.223Z,20.14
2023-05-23T21:06:08.928Z,20.11
2023-05-23T21:08:37.967Z,20.05
2023-05-23T21:11:08.650Z,19.98
2023-05-23T21:13:39.803Z,19.93
2023-05-23T21:16:12.561Z,19.86
2023-05-23T21:18:41.799Z,19.83
2023-05-23T21:21:10.997Z,19.76
2023-05-23T21:23:40.119Z,19.73
2023-05-23T21:26:10.627Z,19.68
2023-05-23T21:28:39.621Z,19.63
2023-05-23T21:31:09.075Z,19.59
2023-05-23T21:33:38.042Z,19.53
2023-05-23T21:36:07.281Z,19.52
2023-05-23T21:38:37.583Z,19.43
2023-05-23T21:41:07.617Z,19.38
2023-05-23T21:43:37.814Z,19.34
2023-05-23T21:46:07.110Z,19.30
2023-05-23T21:48:35.957Z,19.23
2023-05-23T21:51:05.296Z,19.14
2023-05-23T21:53:35.958Z,19.06
2023-05-23T21:56:05.072Z,19.07
2023-05-23T21:58:33.986Z,18.97
2023-05-23T22:01:04.579Z,18.98
2023-05-23T22:03:33.696Z,18.96
2023-05-23T22:06:02.945Z,18.90
2023-05-23T22:08:33.223Z,18.83
2023-05-23T22:11:02.481Z,18.78
2023-05-23T22:13:31.317Z,18.75
2023-05-23T22:16:00.699Z,18.70
2023-05-23T22:18:43.748Z,18.67
2023-05-23T22:21:19.944Z,18.60
2023-05-23T22:23:48.928Z,18.60
2023-05-23T22:26:18.174Z,18.52
2023-05-23T22:28:47.280Z,18.50
2023-05-23T22:31:16.740Z,18.49
2023-05-23T22:33:47.116Z,18.42
2023-05-23T22:36:16.298Z,18.45
2023-05-23T22:38:45.262Z,18.43
2023-05-23T22:41:14.848Z,18.34
2023-05-23T22:43:43.994Z,18.31
2023-05-23T22:46:13.288Z,18.29
2023-05-23T22:48:42.073Z,18.28
2023-05-23T22:51:14.862Z,18.29
2023-05-23T22:53:44.028Z,18.26
2023-05-23T22:56:13.544Z,18.22
2023-05-23T22:58:42.506Z,18.21
2023-05-23T23:01:11.671Z,18.21
2023-05-23T23:03:40.810Z,18.21
2023-05-23T23:06:09.992Z,18.20
2023-05-23T23:08:40.299Z,18.15
2023-05-23T23:11:09.543Z,18.15
2023-05-23T23:13:38.397Z,18.08
2023-05-23T23:16:08.679Z,18.03
2023-05-23T23:18:37.808Z,18.08
2023-05-23T23:21:06.979Z,18.00
2023-05-23T23:23:36.688Z,17.99
2023-05-23T23:26:07.289Z,17.95
2023-05-23T23:28:36.175Z,17.89
2023-05-23T23:31:05.374Z,17.93
2023-05-23T23:33:34.261Z,17.84
2023-05-23T23:36:03.443Z,17.80
2023-05-23T23:38:32.446Z,17.75
2023-05-23T23:41:01.541Z,17.70
2023-05-23T23:43:31.875Z,17.64
2023-05-23T23:46:01.149Z,17.61
2023-05-23T23:48:30.100Z,17.59
2023-05-23T23:50:59.198Z,17.61
2023-05-23T23:53:28.082Z,17.58
2023-05-23T23:55:57.216Z,17.51
2023-05-23T23:58:26.122Z,17.43
